Time;durP1;ratioP1;P1;durP2;ratioP2;P2;SDS_P1;SDS_P2;PMS_P1;PMS_P2;Temp;Humidity;BMP_temperature;BMP_pressure;BME280_temperature;BME280_humidity;BME280_pressure;Samples;Min_cycle;Max_cycle;Signal;HPM_P1;HPM_P2
2023/07/15 00:00:50;;;;;;;6.68;3.08;;;18.80;99.90;;;;;;5043879;28;20580;-49
2023/07/15 00:03:18;;;;;;;5.25;2.88;;;18.70;99.90;;;;;;5040682;28;20049;-49
2023/07/15 00:05:45;;;;;;;5.50;3.28;;;18.70;99.90;;;;;;5045208;28;20666;-49
2023/07/15 00:08:10;;;;;;;5.50;2.60;;;18.70;99.90;;;;;;5037418;28;20502;-49
2023/07/15 00:10:38;;;;;;;4.82;3.10;;;18.60;99.90;;;;;;5035449;28;20048;-51
2023/07/15 00:13:05;;;;;;;5.40;2.72;;;18.50;99.90;;;;;;5037019;28;20532;-52
2023/07/15 00:15:31;;;;;;;5.20;2.90;;;18.50;99.90;;;;;;5038636;28;20040;-49
2023/07/15 00:17:57;;;;;;;7.35;3.75;;;18.50;99.90;;;;;;5035154;28;20037;-48
2023/07/15 00:20:22;;;;;;;3.45;2.65;;;18.50;99.90;;;;;;5034058;28;20047;-49
2023/07/15 00:22:49;;;;;;;3.67;3.25;;;18.50;99.90;;;;;;5037054;28;20112;-50
2023/07/15 00:25:16;;;;;;;;;;;18.50;99.90;;;;;;5040059;28;20037;-49
2023/07/15 00:27:42;;;;;;;;;;;18.40;99.90;;;;;;5036287;28;19917;-51
2023/07/15 00:30:09;;;;;;;4.45;2.20;;;18.50;99.90;;;;;;5038345;28;19920;-51
2023/07/15 00:32:35;;;;;;;6.55;2.67;;;18.50;99.90;;;;;;5032994;28;20134;-49
2023/07/15 00:35:01;;;;;;;4.90;2.50;;;18.40;99.90;;;;;;5036795;28;20065;-51
2023/07/15 00:37:26;;;;;;;7.63;3.03;;;18.40;99.90;;;;;;5033538;28;20116;-49
2023/07/15 00:39:52;;;;;;;7.70;2.92;;;18.40;99.90;;;;;;5037471;28;20048;-49
2023/07/15 00:42:52;;;;;;;7.38;3.13;;;18.40;99.90;;;;;;5036198;28;20136;-49
2023/07/15 00:45:18;;;;;;;5.78;2.50;;;18.40;99.90;;;;;;5040691;28;20383;-49
2023/07/15 00:47:56;;;;;;;5.72;2.95;;;18.30;99.90;;;;;;5038256;28;20044;-49
2023/07/15 00:50:22;;;;;;;5.43;3.33;;;18.40;99.90;;;;;;5046669;28;20430;-52
2023/07/15 00:52:47;;;;;;;6.70;3.15;;;18.40;99.90;;;;;;5029908;28;20110;-51
2023/07/15 00:55:14;;;;;;;3.67;2.40;;;18.40;99.90;;;;;;5044302;28;20075;-51
2023/07/15 00:57:40;;;;;;;5.82;2.70;;;18.40;99.90;;;;;;5038255;28;20175;-51
2023/07/15 01:00:09;;;;;;;;;;;18.40;99.90;;;;;;5034724;28;20215;-53
2023/07/15 01:02:35;;;;;;;4.30;2.38;;;18.40;99.90;;;;;;5038275;28;19948;-49
2023/07/15 01:05:01;;;;;;;6.40;2.70;;;18.40;99.90;;;;;;5034442;28;20482;-49
2023/07/15 01:07:26;;;;;;;7.57;3.28;;;18.50;99.90;;;;;;5038679;28;20042;-52
2023/07/15 01:09:52;;;;;;;3.17;2.45;;;18.50;99.90;;;;;;5040956;28;20033;-52
2023/07/15 01:12:18;;;;;;;12.48;2.55;;;18.50;99.90;;;;;;5040617;28;20045;-49
2023/07/15 01:14:44;;;;;;;4.25;2.33;;;18.50;99.90;;;;;;5037106;28;20125;-48
2023/07/15 01:17:09;;;;;;;;;;;18.50;99.90;;;;;;5044088;28;20040;-49
2023/07/15 01:19:35;;;;;;;8.15;2.38;;;18.60;99.90;;;;;;5041332;28;19921;-49
2023/07/15 01:22:01;;;;;;;3.80;2.28;;;18.60;99.90;;;;;;5043483;28;20088;-49
2023/07/15 01:24:27;;;;;;;;;;;18.60;99.90;;;;;;5038251;28;20428;-49
2023/07/15 01:27:02;;;;;;;7.03;2.77;;;18.70;99.90;;;;;;5040701;28;19921;-52
2023/07/15 01:29:28;;;;;;;3.53;2.05;;;18.70;99.90;;;;;;5037260;28;20037;-49
2023/07/15 01:31:53;;;;;;;5.28;1.98;;;18.70;99.90;;;;;;5035021;28;20034;-51
2023/07/15 01:34:22;;;;;;;4.15;2.10;;;18.70;99.90;;;;;;5034978;28;20510;-50
2023/07/15 01:36:48;;;;;;;5.30;2.35;;;18.70;99.90;;;;;;5052958;28;20109;-49
2023/07/15 01:39:15;;;;;;;3.95;1.98;;;18.80;99.90;;;;;;5039913;28;20037;-49
2023/07/15 01:41:42;;;;;;;6.05;2.08;;;18.90;99.90;;;;;;5039888;28;20051;-52
2023/07/15 01:44:07;;;;;;;4.05;1.92;;;19.00;99.90;;;;;;5033564;28;20038;-49
2023/07/15 01:46:39;;;;;;;6.53;1.88;;;19.00;99.90;;;;;;5050086;28;20060;-52
2023/07/15 01:49:07;;;;;;;6.35;1.83;;;19.10;99.90;;;;;;5039626;28;20037;-49
2023/07/15 01:51:34;;;;;;;7.50;2.30;;;19.20;99.90;;;;;;5042538;28;20049;-53
2023/07/15 01:54:00;;;;;;;2.35;1.73;;;19.30;99.90;;;;;;5035715;28;20047;-49
2023/07/15 01:56:26;;;;;;;8.15;2.55;;;19.30;99.90;;;;;;5043884;28;20116;-49
2023/07/15 01:58:52;;;;;;;3.00;1.85;;;19.30;99.90;;;;;;5042278;28;20120;-49
2023/07/15 02:01:18;;;;;;;3.08;2.45;;;19.30;99.90;;;;;;5041467;28;20057;-50
2023/07/15 02:03:45;;;;;;;2.35;1.48;;;19.30;99.90;;;;;;5041275;28;20041;-49
2023/07/15 02:06:11;;;;;;;5.95;1.80;;;19.30;99.90;;;;;;5040520;28;20044;-49
2023/07/15 02:08:36;;;;;;;3.47;1.90;;;19.30;99.90;;;;;;5036603;28;20041;-49
2023/07/15 02:11:02;;;;;;;4.10;1.60;;;19.20;99.90;;;;;;5040376;28;20120;-49
2023/07/15 02:13:28;;;;;;;3.97;1.92;;;19.20;99.90;;;;;;5037133;28;20037;-54
2023/07/15 02:15:53;;;;;;;;;;;19.20;99.90;;;;;;5037909;28;20049;-53
2023/07/15 02:18:21;;;;;;;8.57;1.80;;;19.20;99.90;;;;;;5036830;28;19916;-49
2023/07/15 02:20:49;;;;;;;2.58;1.55;;;19.20;99.90;;;;;;5040951;28;20112;-49
2023/07/15 02:23:15;;;;;;;4.43;1.30;;;19.30;99.90;;;;;;5041487;28;20041;-49
2023/07/15 02:25:41;;;;;;;2.67;1.85;;;19.30;99.90;;;;;;5034285;28;20056;-49
2023/07/15 02:28:06;;;;;;;5.55;1.63;;;19.40;99.90;;;;;;5039068;28;20091;-51
2023/07/15 02:30:32;;;;;;;;;;;19.40;99.90;;;;;;5051863;28;20030;-49
2023/07/15 02:32:58;;;;;;;5.75;1.75;;;19.40;99.90;;;;;;5037721;28;20436;-49
2023/07/15 02:35:23;;;;;;;;;;;19.40;99.90;;;;;;5036082;28;20068;-49
2023/07/15 02:37:49;;;;;;;5.10;1.05;;;19.40;99.90;;;;;;5041978;28;19917;-53
2023/07/15 02:40:15;;;;;;;;;;;19.40;99.90;;;;;;5043787;28;20072;-52
2023/07/15 02:42:40;;;;;;;4.18;1.70;;;19.50;99.90;;;;;;5044130;28;19947;-49
2023/07/15 02:45:10;;;;;;;5.22;1.63;;;19.50;99.90;;;;;;5042877;28;20033;-50
2023/07/15 02:47:39;;;;;;;1.75;1.45;;;19.60;99.90;;;;;;5040448;28;20099;-51
2023/07/15 02:50:06;;;;;;;3.72;1.50;;;19.70;99.90;;;;;;5034266;28;20034;-49
2023/07/15 02:52:32;;;;;;;4.30;1.20;;;19.70;99.90;;;;;;5043891;28;20098;-49
2023/07/15 02:55:06;;;;;;;4.70;0.85;;;19.70;99.90;;;;;;5032363;28;20064;-52
2023/07/15 02:57:32;;;;;;;3.13;0.93;;;19.80;99.90;;;;;;5037290;28;20156;-51
2023/07/15 02:59:58;;;;;;;;;;;19.80;99.80;;;;;;5034273;28;20069;-52
2023/07/15 03:02:24;;;;;;;1.33;0.95;;;19.80;99.60;;;;;;5037535;28;19968;-50
2023/07/15 03:04:50;;;;;;;;;;;19.90;99.70;;;;;;5038955;28;20026;-52
2023/07/15 03:07:16;;;;;;;1.92;0.73;;;19.90;99.60;;;;;;5035171;28;19974;-49
2023/07/15 03:09:43;;;;;;;7.10;0.85;;;19.90;99.40;;;;;;5039334;28;20041;-49
2023/07/15 03:12:09;;;;;;;2.67;1.20;;;19.90;99.20;;;;;;5033082;28;20593;-52
2023/07/15 03:14:35;;;;;;;3.47;1.10;;;20.00;98.90;;;;;;5039486;28;20033;-52
2023/07/15 03:17:01;;;;;;;4.18;1.25;;;20.20;98.80;;;;;;5038580;28;20043;-51
2023/07/15 03:19:26;;;;;;;4.82;1.00;;;20.30;98.70;;;;;;5042147;28;20441;-54
2023/07/15 03:21:52;;;;;;;4.72;1.10;;;20.40;98.30;;;;;;5038185;28;20125;-49
2023/07/15 03:24:18;;;;;;;1.30;0.95;;;20.40;98.20;;;;;;5035889;28;20033;-49
2023/07/15 03:26:44;;;;;;;2.28;0.77;;;20.50;98.00;;;;;;5038544;28;20079;-49
2023/07/15 03:29:10;;;;;;;3.58;0.80;;;20.60;97.90;;;;;;5035361;28;20049;-50
2023/07/15 03:31:36;;;;;;;4.03;0.93;;;20.60;97.80;;;;;;5041628;28;20405;-49
2023/07/15 03:34:01;;;;;;;;;;;20.60;97.70;;;;;;5040359;28;20037;-51
2023/07/15 03:36:27;;;;;;;2.55;0.70;;;20.60;97.70;;;;;;5038312;28;19917;-49
2023/07/15 03:38:52;;;;;;;;;;;20.60;97.80;;;;;;5039329;28;20523;-50
2023/07/15 03:41:18;;;;;;;2.53;0.90;;;20.60;97.60;;;;;;5038670;28;19923;-49
2023/07/15 03:43:44;;;;;;;;;;;20.60;97.70;;;;;;5040926;28;20041;-52
2023/07/15 03:46:09;;;;;;;3.05;0.90;;;20.60;97.50;;;;;;5034458;28;20011;-53
2023/07/15 03:48:35;;;;;;;;;;;20.60;97.50;;;;;;5048133;28;20041;-51
2023/07/15 03:51:01;;;;;;;4.38;1.02;;;20.60;97.30;;;;;;5045252;28;19921;-49
2023/07/15 03:53:26;;;;;;;;;;;20.60;97.60;;;;;;5040318;28;20439;-51
2023/07/15 03:55:52;;;;;;;2.45;0.63;;;20.60;97.30;;;;;;5036128;28;19917;-49
2023/07/15 03:58:17;;;;;;;;;;;20.60;97.30;;;;;;5044340;28;20044;-50
2023/07/15 04:00:43;;;;;;;9.23;1.13;;;20.60;97.20;;;;;;5034809;28;20266;-53
2023/07/15 04:03:08;;;;;;;;;;;20.60;97.30;;;;;;5040678;28;20103;-49
2023/07/15 04:05:34;;;;;;;5.13;1.00;;;20.60;97.50;;;;;;5036816;28;19916;-49
2023/07/15 04:07:59;;;;;;;;;;;20.60;97.50;;;;;;5043444;28;20067;-53
2023/07/15 04:10:26;;;;;;;3.38;0.98;;;20.50;97.10;;;;;;5037228;28;19940;-50
2023/07/15 04:12:51;;;;;;;5.88;0.85;;;20.50;97.30;;;;;;5036184;28;20046;-53
2023/07/15 04:15:17;;;;;;;6.35;1.27;;;20.50;97.10;;;;;;5042315;28;20091;-53
2023/07/15 04:17:42;;;;;;;;;;;20.60;97.30;;;;;;5037122;28;20049;-49
2023/07/15 04:20:15;;;;;;;7.53;1.38;;;20.60;97.20;;;;;;5042192;28;20412;-49
2023/07/15 04:22:41;;;;;;;6.65;0.90;;;20.60;97.20;;;;;;5035847;28;20398;-49
2023/07/15 04:25:07;;;;;;;4.50;1.27;;;20.60;97.30;;;;;;5040602;28;20029;-49
2023/07/15 04:27:32;;;;;;;;;;;20.60;97.20;;;;;;5034471;28;20120;-49
2023/07/15 04:29:58;;;;;;;3.45;1.05;;;20.60;97.20;;;;;;5038167;28;19921;-53
2023/07/15 04:32:23;;;;;;;;;;;20.60;97.30;;;;;;5040191;28;20052;-49
2023/07/15 04:34:52;;;;;;;1.88;1.30;;;20.60;97.20;;;;;;5037439;28;19970;-49
2023/07/15 04:37:18;;;;;;;3.28;0.90;;;20.60;97.50;;;;;;5037239;28;20038;-49
2023/07/15 04:39:43;;;;;;;1.20;0.57;;;20.60;97.30;;;;;;5037071;28;20035;-50
2023/07/15 04:42:09;;;;;;;;;;;20.60;97.50;;;;;;5036734;28;20045;-49
2023/07/15 04:44:35;;;;;;;3.25;1.02;;;20.60;97.40;;;;;;5032320;28;20419;-50
2023/07/15 04:47:01;;;;;;;;;;;20.60;97.60;;;;;;5035854;28;20037;-51
2023/07/15 04:49:26;;;;;;;2.63;0.93;;;20.60;97.50;;;;;;5037504;28;20029;-49
2023/07/15 04:51:52;;;;;;;;;;;20.60;97.60;;;;;;5035442;28;20091;-49
2023/07/15 04:54:18;;;;;;;3.92;1.23;;;20.60;97.60;;;;;;5038869;28;20192;-49
2023/07/15 04:56:43;;;;;;;;;;;20.60;97.50;;;;;;5039289;28;20053;-52
2023/07/15 04:59:09;;;;;;;3.80;0.82;;;20.70;97.50;;;;;;5042229;28;20019;-49
2023/07/15 05:01:35;;;;;;;3.10;0.88;;;20.70;97.70;;;;;;5037551;28;20041;-50
2023/07/15 05:04:01;;;;;;;;;;;20.70;97.60;;;;;;5042332;28;20119;-52
2023/07/15 05:06:31;;;;;;;2.65;1.20;;;20.80;97.50;;;;;;5037595;28;20425;-49
2023/07/15 05:08:57;;;;;;;2.08;1.08;;;20.80;97.60;;;;;;5039173;28;20033;-51
2023/07/15 05:11:24;;;;;;;;;;;20.90;97.50;;;;;;5038067;28;20103;-50
2023/07/15 05:13:50;;;;;;;7.22;1.25;;;20.90;97.50;;;;;;5040918;28;19931;-52
2023/07/15 05:16:15;;;;;;;;;;;20.90;97.60;;;;;;5037818;28;20041;-50
2023/07/15 05:18:41;;;;;;;8.98;1.23;;;20.90;97.50;;;;;;5034993;28;19917;-49
2023/07/15 05:21:07;;;;;;;;;;;21.00;97.60;;;;;;5042500;28;20501;-52
2023/07/15 05:23:33;;;;;;;3.15;0.90;;;21.00;97.70;;;;;;5036775;28;19995;-49
2023/07/15 05:25:59;;;;;;;;;;;21.10;97.90;;;;;;5040654;28;20687;-49
2023/07/15 05:28:30;;;;;;;3.60;1.30;;;21.10;97.90;;;;;;5036591;28;19923;-50
2023/07/15 05:30:58;;;;;;;5.50;1.80;;;21.10;98.00;;;;;;5041468;28;20048;-50
2023/07/15 05:33:23;;;;;;;6.25;1.10;;;21.10;98.30;;;;;;5040466;28;20040;-51
2023/07/15 05:35:53;;;;;;;4.63;1.30;;;21.20;98.00;;;;;;5041975;28;20494;-49
2023/07/15 05:38:22;;;;;;;4.38;0.82;;;21.20;97.90;;;;;;5040195;28;20117;-49
2023/07/15 05:40:48;;;;;;;3.60;1.00;;;21.20;97.90;;;;;;5037275;28;20084;-49
2023/07/15 05:43:14;;;;;;;;;;;21.30;98.10;;;;;;5040303;28;20041;-49
2023/07/15 05:45:40;;;;;;;5.28;1.05;;;21.40;98.10;;;;;;5043894;28;19971;-49
2023/07/15 05:48:06;;;;;;;4.15;1.17;;;21.50;97.90;;;;;;5038934;28;20053;-53
2023/07/15 05:50:36;;;;;;;5.75;1.10;;;21.50;98.00;;;;;;5034976;28;20041;-52
2023/07/15 05:53:05;;;;;;;5.68;1.30;;;21.60;97.90;;;;;;5048378;28;20040;-52
2023/07/15 05:55:33;;;;;;;5.45;1.00;;;21.70;97.80;;;;;;5047721;28;20398;-50
2023/07/15 05:57:59;;;;;;;6.93;1.55;;;21.70;98.00;;;;;;5045163;28;20033;-52
2023/07/15 06:00:24;;;;;;;;;;;21.80;98.00;;;;;;5049413;28;20485;-52
2023/07/15 06:02:50;;;;;;;7.78;1.50;;;21.90;98.00;;;;;;5052241;28;20027;-50
2023/07/15 06:05:15;;;;;;;4.28;1.55;;;21.90;98.10;;;;;;5051389;28;20025;-52
2023/07/15 06:07:41;;;;;;;;;;;22.00;97.80;;;;;;5044421;28;20124;-50
2023/07/15 06:10:07;;;;;;;2.65;1.35;;;22.10;98.10;;;;;;5050110;28;19925;-51
2023/07/15 06:12:33;;;;;;;;;;;22.10;97.70;;;;;;5052862;28;20040;-50
2023/07/15 06:14:58;;;;;;;11.57;1.55;;;22.20;98.00;;;;;;5051695;28;19917;-50
2023/07/15 06:17:24;;;;;;;;;;;22.30;98.10;;;;;;5052813;28;20037;-50
2023/07/15 06:19:49;;;;;;;2.92;1.40;;;22.30;97.70;;;;;;5052011;28;20055;-51
2023/07/15 06:22:15;;;;;;;;;;;22.40;98.20;;;;;;5050085;28;20130;-49
2023/07/15 06:24:40;;;;;;;3.20;1.35;;;22.40;98.00;;;;;;5048668;28;19929;-55
2023/07/15 06:27:06;;;;;;;5.70;1.25;;;22.50;97.70;;;;;;5051268;28;20036;-55
2023/07/15 06:29:32;;;;;;;10.02;1.92;;;22.50;97.80;;;;;;5050911;28;20068;-54
2023/07/15 06:31:57;;;;;;;4.10;1.48;;;22.60;98.00;;;;;;5051762;28;20040;-51
2023/07/15 06:34:23;;;;;;;5.95;1.40;;;22.60;97.80;;;;;;5051715;28;20044;-55
2023/07/15 06:36:49;;;;;;;3.45;1.23;;;22.60;97.80;;;;;;5051570;28;20078;-54
2023/07/15 06:39:15;;;;;;;2.45;1.15;;;22.70;97.80;;;;;;5048524;28;20052;-49
2023/07/15 06:41:40;;;;;;;2.53;1.17;;;22.80;98.10;;;;;;5042328;28;20095;-53
2023/07/15 06:44:06;;;;;;;1.98;1.23;;;22.90;97.70;;;;;;5050024;28;20095;-54
2023/07/15 06:46:31;;;;;;;2.85;1.08;;;22.90;97.60;;;;;;5047609;28;20554;-49
2023/07/15 06:48:57;;;;;;;;;;;22.90;97.60;;;;;;5044610;28;20104;-50
2023/07/15 06:51:23;;;;;;;7.18;1.08;;;23.00;97.40;;;;;;5049311;28;20344;-53
2023/07/15 06:53:48;;;;;;;3.65;1.08;;;23.00;97.70;;;;;;5047037;28;20061;-55
2023/07/15 06:56:14;;;;;;;;;;;23.10;97.60;;;;;;5050175;28;20072;-55
2023/07/15 06:58:40;;;;;;;5.85;1.23;;;23.20;98.00;;;;;;5051398;28;20004;-52
2023/07/15 07:01:06;;;;;;;3.20;1.10;;;23.20;97.60;;;;;;5051117;28;20025;-49
2023/07/15 07:03:32;;;;;;;;;;;23.30;97.60;;;;;;5051861;28;20044;-52
2023/07/15 07:05:58;;;;;;;5.70;1.00;;;23.30;97.40;;;;;;5050880;28;19955;-53
2023/07/15 07:08:23;;;;;;;;;;;23.40;97.60;;;;;;5051701;28;20125;-50
2023/07/15 07:10:52;;;;;;;2.65;0.70;;;23.40;98.10;;;;;;5051165;28;19923;-53
2023/07/15 07:13:20;;;;;;;3.65;0.85;;;23.50;98.00;;;;;;5041858;28;20400;-50
2023/07/15 07:15:47;;;;;;;1.45;0.88;;;23.50;98.30;;;;;;5045555;28;20440;-51
2023/07/15 07:18:13;;;;;;;5.20;0.77;;;23.60;98.50;;;;;;5045661;28;20048;-51
2023/07/15 07:20:39;;;;;;;4.57;0.82;;;23.60;98.40;;;;;;5050000;28;20048;-54
2023/07/15 07:23:05;;;;;;;2.75;0.88;;;23.70;98.60;;;;;;5045774;28;20555;-54
2023/07/15 07:25:30;;;;;;;1.27;0.55;;;23.70;99.10;;;;;;5050903;28;20502;-56
2023/07/15 07:27:56;;;;;;;2.40;0.98;;;23.70;99.00;;;;;;5050969;28;20124;-55
2023/07/15 07:30:21;;;;;;;3.85;1.27;;;23.80;99.20;;;;;;5051273;28;20425;-50
2023/07/15 07:32:48;;;;;;;1.73;0.77;;;23.80;99.00;;;;;;5050509;28;20128;-51
2023/07/15 07:35:14;;;;;;;2.85;0.82;;;23.90;99.40;;;;;;5050633;28;20049;-53
2023/07/15 07:37:39;;;;;;;2.10;0.75;;;23.90;99.10;;;;;;5050009;28;20067;-55
2023/07/15 07:40:06;;;;;;;2.25;0.93;;;23.90;98.90;;;;;;5046444;28;20116;-57
2023/07/15 07:42:32;;;;;;;3.13;1.20;;;24.00;99.10;;;;;;5050245;28;20044;-54
2023/07/15 07:44:57;;;;;;;2.58;1.13;;;24.00;98.90;;;;;;5050622;28;20033;-55
2023/07/15 07:47:24;;;;;;;3.45;0.70;;;24.10;99.10;;;;;;5050404;28;20083;-54
2023/07/15 07:49:50;;;;;;;3.30;0.70;;;24.10;99.00;;;;;;5050083;28;20033;-53
2023/07/15 07:52:15;;;;;;;3.80;1.15;;;24.10;98.70;;;;;;5048213;28;20461;-53
2023/07/15 07:54:41;;;;;;;4.05;1.05;;;24.20;98.80;;;;;;5048221;28;20033;-54
2023/07/15 07:57:06;;;;;;;4.07;0.60;;;24.20;99.10;;;;;;5050254;28;20449;-52
2023/07/15 07:59:32;;;;;;;12.65;0.98;;;24.20;99.00;;;;;;5046186;28;20037;-50
2023/07/15 08:01:57;;;;;;;1.90;0.70;;;24.30;99.30;;;;;;5039421;28;20686;-50
2023/07/15 08:04:23;;;;;;;5.05;1.02;;;24.40;99.00;;;;;;5043030;28;20041;-50
2023/07/15 08:06:49;;;;;;;1.90;0.82;;;24.50;99.30;;;;;;5048420;28;20479;-51
2023/07/15 08:09:14;;;;;;;3.60;0.93;;;24.60;99.20;;;;;;5044263;28;20044;-53
2023/07/15 08:11:42;;;;;;;3.63;0.70;;;24.70;99.30;;;;;;5039317;28;20414;-50
2023/07/15 08:14:08;;;;;;;2.05;0.77;;;24.80;99.10;;;;;;5047149;28;20398;-49
2023/07/15 08:16:36;;;;;;;6.78;1.38;;;24.90;99.00;;;;;;5049762;28;20033;-50
2023/07/15 08:19:03;;;;;;;7.45;1.35;;;25.00;98.50;;;;;;5035304;28;20052;-53
2023/07/15 08:21:30;;;;;;;2.13;0.50;;;24.90;98.40;;;;;;5036733;28;20115;-49
2023/07/15 08:23:56;;;;;;;4.07;1.15;;;24.90;98.50;;;;;;5037438;28;20120;-57
2023/07/15 08:26:22;;;;;;;3.72;0.50;;;24.90;98.40;;;;;;5037792;28;20064;-52
2023/07/15 08:28:48;;;;;;;3.85;0.63;;;24.90;98.50;;;;;;5042057;28;20033;-54
2023/07/15 08:31:14;;;;;;;1.20;0.82;;;24.90;98.30;;;;;;5042165;28;20039;-53
2023/07/15 08:33:40;;;;;;;3.15;0.80;;;25.00;98.50;;;;;;5045022;28;20120;-55
2023/07/15 08:36:06;;;;;;;4.07;0.90;;;25.20;98.60;;;;;;5049178;28;20031;-50
2023/07/15 08:38:31;;;;;;;3.75;0.90;;;25.30;99.00;;;;;;5049426;28;20033;-53
2023/07/15 08:41:00;;;;;;;4.10;0.73;;;25.30;98.30;;;;;;5049354;28;20033;-52
2023/07/15 08:43:28;;;;;;;8.48;1.15;;;25.40;98.70;;;;;;5049329;28;20044;-51
2023/07/15 08:45:57;;;;;;;2.90;0.98;;;25.50;99.10;;;;;;5048894;28;20440;-55
2023/07/15 08:48:22;;;;;;;3.58;0.80;;;25.60;98.60;;;;;;5035523;28;20033;-53
2023/07/15 08:50:49;;;;;;;2.28;0.70;;;25.70;98.50;;;;;;5049188;28;20434;-52
2023/07/15 08:53:21;;;;;;;3.75;0.80;;;25.70;97.70;;;;;;5047331;28;20075;-49
2023/07/15 08:55:48;;;;;;;2.75;1.23;;;25.60;97.80;;;;;;5040661;28;20110;-51
2023/07/15 08:58:14;;;;;;;3.25;0.77;;;25.50;97.90;;;;;;5047120;28;20391;-50
2023/07/15 09:00:39;;;;;;;4.45;0.93;;;25.40;98.00;;;;;;5043358;28;20079;-54
2023/07/15 09:03:05;;;;;;;2.65;1.10;;;25.20;97.70;;;;;;5042085;28;20497;-51
2023/07/15 09:05:31;;;;;;;2.05;0.73;;;25.10;97.80;;;;;;5049227;28;20032;-51
2023/07/15 09:07:58;;;;;;;9.73;1.05;;;25.00;97.90;;;;;;5051615;28;20040;-56
2023/07/15 09:10:24;;;;;;;3.78;0.88;;;24.90;98.10;;;;;;5048040;28;20098;-55
2023/07/15 09:12:55;;;;;;;2.78;1.45;;;25.00;98.70;;;;;;5052172;28;20102;-57
2023/07/15 09:15:20;;;;;;;9.18;1.05;;;25.00;98.30;;;;;;5053051;28;20326;-53
2023/07/15 09:18:01;;;;;;;3.15;1.00;;;25.10;98.60;;;;;;5051968;28;20045;-53
2023/07/15 09:20:27;;;;;;;1.10;0.65;;;25.20;98.70;;;;;;5045875;28;20068;-54
2023/07/15 09:22:57;;;;;;;3.35;0.75;;;25.20;98.70;;;;;;5037602;28;20114;-55
2023/07/15 09:25:24;;;;;;;1.88;1.13;;;25.40;99.20;;;;;;5039530;28;20116;-55
2023/07/15 09:27:50;;;;;;;3.88;0.50;;;25.50;99.30;;;;;;5041868;28;20110;-52
2023/07/15 09:30:17;;;;;;;3.65;0.70;;;25.60;98.70;;;;;;5047590;28;20059;-52
2023/07/15 09:32:42;;;;;;;4.20;0.60;;;25.70;98.70;;;;;;5052897;28;20053;-52
2023/07/15 09:35:08;;;;;;;2.70;0.77;;;25.70;98.90;;;;;;5050005;28;20085;-51
2023/07/15 09:37:34;;;;;;;3.90;0.68;;;25.80;98.20;;;;;;5042179;28;20099;-52
2023/07/15 09:40:05;;;;;;;4.30;0.73;;;25.70;97.80;;;;;;5051541;28;20042;-52
2023/07/15 09:42:51;;;;;;;3.28;0.43;;;25.60;97.50;;;;;;5044402;28;20048;-51
2023/07/15 09:45:38;;;;;;;4.57;0.57;;;25.40;97.10;;;;;;5048522;28;20037;-54
2023/07/15 09:48:09;;;;;;;11.63;1.40;;;25.20;97.70;;;;;;5037684;28;20398;-54
2023/07/15 09:50:36;;;;;;;4.18;0.40;;;25.20;97.90;;;;;;5048350;28;20063;-54
2023/07/15 09:53:03;;;;;;;1.17;0.47;;;25.20;97.80;;;;;;5046660;28;20830;-54
2023/07/15 09:55:30;;;;;;;2.58;0.40;;;25.20;97.60;;;;;;5040726;28;20120;-51
2023/07/15 09:58:08;;;;;;;2.58;0.47;;;25.20;97.80;;;;;;5051426;28;20044;-53
2023/07/15 10:00:37;;;;;;;2.97;0.30;;;25.20;98.00;;;;;;5042833;28;20029;-53
2023/07/15 10:03:05;;;;;;;3.20;0.60;;;25.10;97.90;;;;;;5044430;28;20037;-51
2023/07/15 10:05:32;;;;;;;4.63;0.52;;;25.00;97.90;;;;;;5051089;28;20033;-52
2023/07/15 10:07:58;;;;;;;1.48;0.50;;;25.00;97.80;;;;;;5048422;28;20389;-51
2023/07/15 10:10:23;;;;;;;2.83;0.45;;;25.00;98.10;;;;;;5048503;28;20067;-52
2023/07/15 10:12:50;;;;;;;4.10;0.82;;;24.90;98.00;;;;;;5042943;28;20041;-53
2023/07/15 10:15:17;;;;;;;2.88;0.45;;;24.90;98.20;;;;;;5042379;28;20032;-55
2023/07/15 10:17:45;;;;;;;3.90;0.50;;;24.80;97.90;;;;;;5042065;28;20402;-53
2023/07/15 10:20:11;;;;;;;7.20;0.80;;;24.80;97.90;;;;;;5047491;28;20079;-56
2023/07/15 10:22:38;;;;;;;3.75;0.73;;;24.80;98.20;;;;;;5039074;28;20708;-51
2023/07/15 10:25:07;;;;;;;2.35;0.80;;;24.70;98.40;;;;;;5042174;28;20033;-54
2023/07/15 10:27:33;;;;;;;5.43;0.90;;;24.80;98.60;;;;;;5037981;28;20033;-56
2023/07/15 10:30:27;;;;;;;5.60;0.70;;;24.80;98.30;;;;;;5042286;28;20044;-51
2023/07/15 10:33:03;;;;;;;2.38;0.40;;;24.90;98.30;;;;;;5044196;28;20052;-52
2023/07/15 10:35:31;;;;;;;4.78;0.60;;;25.00;98.20;;;;;;5046126;28;20437;-52
2023/07/15 10:38:21;;;;;;;2.78;0.40;;;24.90;98.20;;;;;;5036301;28;20612;-52
2023/07/15 10:40:47;;;;;;;4.88;0.70;;;24.80;97.60;;;;;;5044140;28;20049;-54
2023/07/15 10:43:20;;;;;;;3.60;0.40;;;24.60;97.60;;;;;;5047060;28;20509;-53
2023/07/15 10:46:06;;;;;;;1.02;0.50;;;24.50;97.90;;;;;;5047200;28;20037;-52
2023/07/15 10:48:32;;;;;;;1.27;0.70;;;24.40;98.00;;;;;;5040463;28;20083;-54
2023/07/15 10:51:02;;;;;;;4.45;0.60;;;24.30;98.20;;;;;;5043506;28;20029;-52
2023/07/15 10:53:32;;;;;;;2.53;0.60;;;24.30;98.60;;;;;;5045939;28;20044;-52
2023/07/15 10:56:09;;;;;;;1.35;0.55;;;24.40;98.70;;;;;;5049577;28;20440;-52
2023/07/15 10:58:36;;;;;;;2.35;0.68;;;24.40;98.80;;;;;;5052799;28;20044;-55
2023/07/15 11:01:09;;;;;;;3.20;0.63;;;24.60;98.60;;;;;;5052978;28;20037;-57
2023/07/15 11:03:37;;;;;;;1.92;0.70;;;24.70;98.90;;;;;;5052265;28;20037;-54
2023/07/15 11:06:04;;;;;;;1.52;0.52;;;24.80;99.00;;;;;;5052105;28;20060;-53
2023/07/15 11:08:31;;;;;;;4.20;0.60;;;24.90;98.90;;;;;;5051838;28;20120;-57
2023/07/15 11:11:04;;;;;;;1.17;0.43;;;24.80;98.30;;;;;;5042144;28;20498;-54
2023/07/15 11:13:31;;;;;;;2.33;0.50;;;24.80;98.60;;;;;;5052495;28;20044;-53
2023/07/15 11:15:57;;;;;;;2.53;0.60;;;24.70;98.70;;;;;;5052538;28;20391;-53
2023/07/15 11:18:25;;;;;;;12.57;0.98;;;24.60;98.70;;;;;;5051892;28;20041;-55
2023/07/15 11:20:54;;;;;;;2.75;0.65;;;24.60;98.90;;;;;;5050610;28;20494;-51
2023/07/15 11:23:20;;;;;;;5.30;0.60;;;24.50;98.70;;;;;;5051823;28;20082;-52
2023/07/15 11:25:46;;;;;;;2.72;0.50;;;24.40;98.60;;;;;;5051064;28;20044;-53
2023/07/15 11:28:12;;;;;;;3.47;0.70;;;24.40;98.60;;;;;;5052598;28;20037;-53
2023/07/15 11:30:43;;;;;;;1.85;0.80;;;24.40;98.30;;;;;;5042525;28;20056;-53
2023/07/15 11:33:09;;;;;;;4.60;1.00;;;24.30;98.40;;;;;;5048038;28;20045;-53
2023/07/15 11:35:37;;;;;;;1.73;0.70;;;24.20;98.30;;;;;;5045248;28;20556;-56
2023/07/15 11:38:14;;;;;;;10.70;0.82;;;24.20;98.50;;;;;;5043195;28;20040;-53
2023/07/15 11:40:58;;;;;;;4.45;0.93;;;24.20;98.40;;;;;;5045822;28;20048;-53
2023/07/15 11:43:26;;;;;;;3.17;1.15;;;24.10;98.40;;;;;;5041025;28;20123;-51
2023/07/15 11:45:59;;;;;;;4.97;1.05;;;24.10;98.50;;;;;;5046835;28;20032;-54
2023/07/15 11:48:33;;;;;;;2.03;0.93;;;24.10;98.20;;;;;;5047099;28;20167;-55
2023/07/15 11:51:06;;;;;;;1.73;0.95;;;24.10;98.30;;;;;;5040929;28;20055;-51
2023/07/15 11:53:34;;;;;;;5.15;1.05;;;24.00;98.40;;;;;;5038630;28;20041;-53
2023/07/15 11:56:00;;;;;;;4.35;1.10;;;24.00;98.40;;;;;;5038118;28;20049;-55
2023/07/15 11:58:44;;;;;;;3.88;0.70;;;24.00;98.50;;;;;;5042973;28;20041;-54
2023/07/15 12:01:15;;;;;;;3.13;0.80;;;24.00;98.20;;;;;;5036766;28;20045;-53
2023/07/15 12:03:42;;;;;;;6.80;0.50;;;24.00;98.00;;;;;;5039331;28;20042;-53
2023/07/15 12:06:17;;;;;;;1.08;0.45;;;23.90;98.10;;;;;;5043221;28;20449;-52
2023/07/15 12:08:58;;;;;;;2.47;0.40;;;23.90;98.40;;;;;;5037452;28;20049;-53
2023/07/15 12:11:24;;;;;;;2.28;0.82;;;24.00;98.90;;;;;;5040305;28;20072;-56
2023/07/15 12:13:49;;;;;;;4.38;0.90;;;24.10;98.80;;;;;;5046189;28;20056;-52
2023/07/15 12:16:17;;;;;;;2.88;0.65;;;24.20;98.70;;;;;;5047245;28;20037;-51
2023/07/15 12:18:43;;;;;;;6.30;0.88;;;24.20;99.00;;;;;;5042484;28;20399;-51
2023/07/15 12:21:09;;;;;;;3.13;0.70;;;24.20;99.00;;;;;;5044823;28;20098;-52
2023/07/15 12:23:34;;;;;;;3.30;0.70;;;24.30;99.00;;;;;;5044462;28;20788;-52
2023/07/15 12:26:00;;;;;;;4.97;0.63;;;24.30;99.10;;;;;;5044684;28;20696;-55
2023/07/15 12:28:25;;;;;;;1.83;0.55;;;24.40;99.20;;;;;;5049216;28;20033;-52
2023/07/15 12:30:51;;;;;;;3.65;0.50;;;24.40;99.20;;;;;;5048968;28;20044;-51
2023/07/15 12:33:17;;;;;;;1.92;0.93;;;24.30;98.90;;;;;;5045539;28;20037;-52
2023/07/15 12:35:43;;;;;;;5.38;0.80;;;24.20;99.00;;;;;;5040948;28;20040;-55
2023/07/15 12:38:08;;;;;;;1.92;0.70;;;24.20;99.20;;;;;;5050190;28;20037;-52
2023/07/15 12:40:34;;;;;;;2.38;0.65;;;24.20;99.00;;;;;;5050040;28;20036;-52
2023/07/15 12:42:59;;;;;;;1.08;0.63;;;24.10;99.20;;;;;;5050243;28;20037;-54
2023/07/15 12:45:25;;;;;;;1.40;0.52;;;24.10;99.30;;;;;;5042584;28;20555;-52
2023/07/15 12:47:50;;;;;;;2.38;0.40;;;24.00;99.20;;;;;;5054272;28;20167;-53
2023/07/15 12:50:16;;;;;;;4.40;0.63;;;24.00;99.50;;;;;;5044221;28;20394;-57
2023/07/15 12:52:42;;;;;;;1.20;0.40;;;24.00;99.80;;;;;;5050207;28;20037;-52
2023/07/15 12:55:08;;;;;;;1.83;0.40;;;23.90;99.40;;;;;;5049399;28;20043;-51
2023/07/15 12:57:33;;;;;;;1.95;0.38;;;23.90;99.30;;;;;;5046998;28;20461;-52